sensor_id;sensor_type;location;lat;lon;timestamp;P1;durP1;ratioP1;P2;durP2;ratioP2
8536;SDS011;4306;50.210;10.628;2024-02-04T00:02:14;3.65;;;2.50;;
8536;SDS011;4306;50.210;10.628;2024-02-04T00:04:43;3.95;;;2.58;;
8536;SDS011;4306;50.210;10.628;2024-02-04T00:07:10;3.67;;;2.45;;
8536;SDS011;4306;50.210;10.628;2024-02-04T00:09:37;4.18;;;2.67;;
8536;SDS011;4306;50.210;10.628;2024-02-04T00:12:04;3.70;;;2.42;;
8536;SDS011;4306;50.210;10.628;2024-02-04T00:14:32;3.30;;;2.63;;
8536;SDS011;4306;50.210;10.628;2024-02-04T00:16:59;4.00;;;2.70;;
8536;SDS011;4306;50.210;10.628;2024-02-04T00:19:26;4.05;;;2.72;;
8536;SDS011;4306;50.210;10.628;2024-02-04T00:21:54;4.70;;;3.20;;
8536;SDS011;4306;50.210;10.628;2024-02-04T00:24:21;5.57;;;2.90;;
8536;SDS011;4306;50.210;10.628;2024-02-04T00:26:49;3.95;;;2.83;;
8536;SDS011;4306;50.210;10.628;2024-02-04T00:29:16;3.85;;;2.88;;
8536;SDS011;4306;50.210;10.628;2024-02-04T00:31:43;6.75;;;3.35;;
8536;SDS011;4306;50.210;10.628;2024-02-04T00:34:10;5.30;;;3.50;;
8536;SDS011;4306;50.210;10.628;2024-02-04T00:36:37;6.55;;;3.33;;
8536;SDS011;4306;50.210;10.628;2024-02-04T00:39:05;4.85;;;3.25;;
8536;SDS011;4306;50.210;10.628;2024-02-04T00:41:32;6.53;;;3.13;;
8536;SDS011;4306;50.210;10.628;2024-02-04T00:44:00;6.20;;;3.95;;
8536;SDS011;4306;50.210;10.628;2024-02-04T00:46:27;4.75;;;3.30;;
8536;SDS011;4306;50.210;10.628;2024-02-04T00:48:54;5.95;;;3.45;;
8536;SDS011;4306;50.210;10.628;2024-02-04T00:51:21;4.82;;;3.28;;
8536;SDS011;4306;50.210;10.628;2024-02-04T00:53:48;4.00;;;2.75;;
8536;SDS011;4306;50.210;10.628;2024-02-04T00:56:16;4.88;;;2.70;;
8536;SDS011;4306;50.210;10.628;2024-02-04T00:58:43;4.47;;;3.00;;
8536;SDS011;4306;50.210;10.628;2024-02-04T01:01:10;4.32;;;3.13;;
8536;SDS011;4306;50.210;10.628;2024-02-04T01:03:38;5.63;;;3.10;;
8536;SDS011;4306;50.210;10.628;2024-02-04T01:06:04;4.00;;;2.88;;
8536;SDS011;4306;50.210;10.628;2024-02-04T01:08:31;4.60;;;2.90;;
8536;SDS011;4306;50.210;10.628;2024-02-04T01:10:59;3.75;;;2.78;;
8536;SDS011;4306;50.210;10.628;2024-02-04T01:13:28;4.50;;;2.83;;
8536;SDS011;4306;50.210;10.628;2024-02-04T01:15:55;5.15;;;3.22;;
8536;SDS011;4306;50.210;10.628;2024-02-04T01:18:22;3.47;;;2.58;;
8536;SDS011;4306;50.210;10.628;2024-02-04T01:20:49;4.45;;;2.70;;
8536;SDS011;4306;50.210;10.628;2024-02-04T01:23:16;4.38;;;2.70;;
8536;SDS011;4306;50.210;10.628;2024-02-04T01:25:44;3.60;;;2.50;;
8536;SDS011;4306;50.210;10.628;2024-02-04T01:28:12;4.40;;;2.97;;
8536;SDS011;4306;50.210;10.628;2024-02-04T01:30:40;5.60;;;3.08;;
8536;SDS011;4306;50.210;10.628;2024-02-04T01:33:07;5.65;;;2.90;;
8536;SDS011;4306;50.210;10.628;2024-02-04T01:35:34;4.13;;;2.67;;
8536;SDS011;4306;50.210;10.628;2024-02-04T01:38:01;4.30;;;2.30;;
8536;SDS011;4306;50.210;10.628;2024-02-04T01:40:28;4.03;;;2.45;;
8536;SDS011;4306;50.210;10.628;2024-02-04T01:42:55;4.30;;;2.70;;
8536;SDS011;4306;50.210;10.628;2024-02-04T01:45:22;3.80;;;2.85;;
8536;SDS011;4306;50.210;10.628;2024-02-04T01:47:51;3.25;;;2.40;;
8536;SDS011;4306;50.210;10.628;2024-02-04T01:50:19;3.92;;;2.75;;
8536;SDS011;4306;50.210;10.628;2024-02-04T01:52:46;3.60;;;2.83;;
8536;SDS011;4306;50.210;10.628;2024-02-04T01:55:14;4.40;;;2.58;;
8536;SDS011;4306;50.210;10.628;2024-02-04T01:57:42;3.70;;;2.50;;
8536;SDS011;4306;50.210;10.628;2024-02-04T02:00:09;3.60;;;2.60;;
8536;SDS011;4306;50.210;10.628;2024-02-04T02:02:39;3.22;;;2.25;;
8536;SDS011;4306;50.210;10.628;2024-02-04T02:05:08;3.38;;;2.75;;
8536;SDS011;4306;50.210;10.628;2024-02-04T02:07:35;3.53;;;2.33;;
8536;SDS011;4306;50.210;10.628;2024-02-04T02:10:03;3.58;;;2.65;;
8536;SDS011;4306;50.210;10.628;2024-02-04T02:12:34;3.45;;;2.30;;
8536;SDS011;4306;50.210;10.628;2024-02-04T02:15:07;3.03;;;2.28;;
8536;SDS011;4306;50.210;10.628;2024-02-04T02:17:42;3.17;;;2.42;;
8536;SDS011;4306;50.210;10.628;2024-02-04T02:20:18;2.60;;;2.08;;
8536;SDS011;4306;50.210;10.628;2024-02-04T02:22:50;2.15;;;1.65;;
8536;SDS011;4306;50.210;10.628;2024-02-04T02:25:27;2.55;;;1.80;;
8536;SDS011;4306;50.210;10.628;2024-02-04T02:27:54;2.72;;;1.80;;
8536;SDS011;4306;50.210;10.628;2024-02-04T02:30:21;2.53;;;1.80;;
8536;SDS011;4306;50.210;10.628;2024-02-04T02:32:48;2.83;;;1.90;;
8536;SDS011;4306;50.210;10.628;2024-02-04T02:35:16;2.55;;;1.77;;
8536;SDS011;4306;50.210;10.628;2024-02-04T02:37:44;2.58;;;1.60;;
8536;SDS011;4306;50.210;10.628;2024-02-04T02:40:20;2.78;;;1.85;;
8536;SDS011;4306;50.210;10.628;2024-02-04T02:42:53;2.90;;;2.15;;
8536;SDS011;4306;50.210;10.628;2024-02-04T02:45:21;3.05;;;1.73;;
8536;SDS011;4306;50.210;10.628;2024-02-04T02:47:50;2.30;;;1.58;;
8536;SDS011;4306;50.210;10.628;2024-02-04T02:50:18;3.13;;;2.08;;
8536;SDS011;4306;50.210;10.628;2024-02-04T02:52:45;3.08;;;2.22;;
8536;SDS011;4306;50.210;10.628;2024-02-04T02:55:12;2.97;;;2.30;;
8536;SDS011;4306;50.210;10.628;2024-02-04T02:57:39;8.60;;;6.88;;
8536;SDS011;4306;50.210;10.628;2024-02-04T03:00:08;3.80;;;2.25;;
8536;SDS011;4306;50.210;10.628;2024-02-04T03:02:36;7.03;;;4.70;;
8536;SDS011;4306;50.210;10.628;2024-02-04T03:05:04;6.70;;;5.05;;
8536;SDS011;4306;50.210;10.628;2024-02-04T03:07:31;2.72;;;1.92;;
8536;SDS011;4306;50.210;10.628;2024-02-04T03:09:58;3.50;;;2.60;;
8536;SDS011;4306;50.210;10.628;2024-02-04T03:12:25;2.25;;;1.60;;
8536;SDS011;4306;50.210;10.628;2024-02-04T03:14:52;2.33;;;1.58;;
8536;SDS011;4306;50.210;10.628;2024-02-04T03:17:20;2.65;;;1.70;;
8536;SDS011;4306;50.210;10.628;2024-02-04T03:19:47;4.53;;;2.42;;
8536;SDS011;4306;50.210;10.628;2024-02-04T03:22:16;3.55;;;2.30;;
8536;SDS011;4306;50.210;10.628;2024-02-04T03:24:43;7.70;;;3.80;;
8536;SDS011;4306;50.210;10.628;2024-02-04T03:27:11;12.35;;;5.55;;
8536;SDS011;4306;50.210;10.628;2024-02-04T03:29:38;2.67;;;1.75;;
8536;SDS011;4306;50.210;10.628;2024-02-04T03:32:05;4.35;;;2.45;;
8536;SDS011;4306;50.210;10.628;2024-02-04T03:34:33;2.88;;;1.90;;
8536;SDS011;4306;50.210;10.628;2024-02-04T03:37:01;3.67;;;2.00;;
8536;SDS011;4306;50.210;10.628;2024-02-04T03:39:28;8.15;;;4.38;;
8536;SDS011;4306;50.210;10.628;2024-02-04T03:41:55;3.58;;;1.90;;
8536;SDS011;4306;50.210;10.628;2024-02-04T03:44:22;3.78;;;2.38;;
8536;SDS011;4306;50.210;10.628;2024-02-04T03:46:49;4.78;;;2.92;;
8536;SDS011;4306;50.210;10.628;2024-02-04T03:49:16;4.70;;;2.72;;
8536;SDS011;4306;50.210;10.628;2024-02-04T03:51:45;6.15;;;3.63;;
8536;SDS011;4306;50.210;10.628;2024-02-04T03:54:12;3.08;;;1.92;;
8536;SDS011;4306;50.210;10.628;2024-02-04T03:56:39;5.25;;;3.00;;
8536;SDS011;4306;50.210;10.628;2024-02-04T03:59:07;6.43;;;3.05;;
8536;SDS011;4306;50.210;10.628;2024-02-04T04:01:36;3.42;;;2.20;;
8536;SDS011;4306;50.210;10.628;2024-02-04T04:04:03;8.40;;;4.68;;
8536;SDS011;4306;50.210;10.628;2024-02-04T04:06:30;7.20;;;4.22;;
8536;SDS011;4306;50.210;10.628;2024-02-04T04:08:58;3.10;;;2.13;;
8536;SDS011;4306;50.210;10.628;2024-02-04T04:11:25;2.70;;;2.20;;
8536;SDS011;4306;50.210;10.628;2024-02-04T04:13:52;4.47;;;2.35;;
8536;SDS011;4306;50.210;10.628;2024-02-04T04:16:20;2.60;;;1.85;;
8536;SDS011;4306;50.210;10.628;2024-02-04T04:18:48;2.53;;;1.90;;
8536;SDS011;4306;50.210;10.628;2024-02-04T04:21:15;3.15;;;2.28;;
8536;SDS011;4306;50.210;10.628;2024-02-04T04:23:42;2.67;;;2.08;;
8536;SDS011;4306;50.210;10.628;2024-02-04T04:26:11;3.92;;;3.08;;
8536;SDS011;4306;50.210;10.628;2024-02-04T04:28:38;2.90;;;1.95;;
8536;SDS011;4306;50.210;10.628;2024-02-04T04:31:05;3.15;;;2.30;;
8536;SDS011;4306;50.210;10.628;2024-02-04T04:33:32;3.30;;;2.30;;
8536;SDS011;4306;50.210;10.628;2024-02-04T04:35:59;4.85;;;3.22;;
8536;SDS011;4306;50.210;10.628;2024-02-04T04:38:26;2.83;;;1.98;;
8536;SDS011;4306;50.210;10.628;2024-02-04T04:40:53;3.20;;;2.10;;
8536;SDS011;4306;50.210;10.628;2024-02-04T04:43:21;3.92;;;1.80;;
8536;SDS011;4306;50.210;10.628;2024-02-04T04:45:48;2.17;;;1.60;;
8536;SDS011;4306;50.210;10.628;2024-02-04T04:48:15;5.22;;;1.60;;
8536;SDS011;4306;50.210;10.628;2024-02-04T04:50:42;3.35;;;1.80;;
8536;SDS011;4306;50.210;10.628;2024-02-04T04:53:10;2.55;;;1.58;;
8536;SDS011;4306;50.210;10.628;2024-02-04T04:55:37;2.47;;;1.90;;
8536;SDS011;4306;50.210;10.628;2024-02-04T04:58:04;2.05;;;1.40;;
8536;SDS011;4306;50.210;10.628;2024-02-04T05:00:32;1.80;;;1.23;;
8536;SDS011;4306;50.210;10.628;2024-02-04T05:02:59;2.20;;;1.50;;
8536;SDS011;4306;50.210;10.628;2024-02-04T05:05:26;3.20;;;1.55;;
8536;SDS011;4306;50.210;10.628;2024-02-04T05:07:53;1.88;;;1.40;;
8536;SDS011;4306;50.210;10.628;2024-02-04T05:10:20;4.18;;;2.00;;
8536;SDS011;4306;50.210;10.628;2024-02-04T05:12:47;4.60;;;2.00;;
8536;SDS011;4306;50.210;10.628;2024-02-04T05:15:15;1.67;;;1.33;;
8536;SDS011;4306;50.210;10.628;2024-02-04T05:17:43;1.80;;;1.20;;
8536;SDS011;4306;50.210;10.628;2024-02-04T05:20:11;2.80;;;1.20;;
8536;SDS011;4306;50.210;10.628;2024-02-04T05:22:38;3.30;;;1.63;;
8536;SDS011;4306;50.210;10.628;2024-02-04T05:25:05;3.35;;;1.60;;
8536;SDS011;4306;50.210;10.628;2024-02-04T05:27:34;2.47;;;1.65;;
8536;SDS011;4306;50.210;10.628;2024-02-04T05:30:02;2.00;;;1.45;;
8536;SDS011;4306;50.210;10.628;2024-02-04T05:32:30;2.33;;;1.70;;
8536;SDS011;4306;50.210;10.628;2024-02-04T05:34:58;4.57;;;2.50;;
8536;SDS011;4306;50.210;10.628;2024-02-04T05:37:25;2.55;;;1.80;;
8536;SDS011;4306;50.210;10.628;2024-02-04T05:39:52;2.78;;;2.08;;
8536;SDS011;4306;50.210;10.628;2024-02-04T05:42:19;2.17;;;1.42;;
8536;SDS011;4306;50.210;10.628;2024-02-04T05:44:46;2.00;;;1.42;;
8536;SDS011;4306;50.210;10.628;2024-02-04T05:47:13;4.32;;;1.70;;
8536;SDS011;4306;50.210;10.628;2024-02-04T05:49:40;2.20;;;1.50;;
8536;SDS011;4306;50.210;10.628;2024-02-04T05:52:08;2.40;;;1.70;;
8536;SDS011;4306;50.210;10.628;2024-02-04T05:54:37;1.85;;;1.30;;
8536;SDS011;4306;50.210;10.628;2024-02-04T05:57:05;2.15;;;1.60;;
8536;SDS011;4306;50.210;10.628;2024-02-04T05:59:32;1.58;;;1.23;;
8536;SDS011;4306;50.210;10.628;2024-02-04T06:01:59;1.63;;;1.25;;
8536;SDS011;4306;50.210;10.628;2024-02-04T06:04:26;1.30;;;1.10;;
8536;SDS011;4306;50.210;10.628;2024-02-04T06:06:53;1.80;;;1.30;;
8536;SDS011;4306;50.210;10.628;2024-02-04T06:09:21;2.80;;;1.20;;
8536;SDS011;4306;50.210;10.628;2024-02-04T06:11:48;1.90;;;1.40;;
8536;SDS011;4306;50.210;10.628;2024-02-04T06:14:15;4.25;;;1.55;;
8536;SDS011;4306;50.210;10.628;2024-02-04T06:16:43;1.90;;;1.40;;
8536;SDS011;4306;50.210;10.628;2024-02-04T06:19:10;2.70;;;1.95;;
8536;SDS011;4306;50.210;10.628;2024-02-04T06:21:38;4.70;;;3.70;;
8536;SDS011;4306;50.210;10.628;2024-02-04T06:24:05;2.28;;;1.55;;
8536;SDS011;4306;50.210;10.628;2024-02-04T06:26:36;5.18;;;3.45;;
8536;SDS011;4306;50.210;10.628;2024-02-04T06:29:04;4.03;;;3.05;;
8536;SDS011;4306;50.210;10.628;2024-02-04T06:31:31;4.70;;;2.78;;
8536;SDS011;4306;50.210;10.628;2024-02-04T06:33:58;2.63;;;1.80;;
8536;SDS011;4306;50.210;10.628;2024-02-04T06:36:26;2.28;;;1.63;;
8536;SDS011;4306;50.210;10.628;2024-02-04T06:38:53;3.20;;;1.17;;
8536;SDS011;4306;50.210;10.628;2024-02-04T06:41:20;2.13;;;1.60;;
8536;SDS011;4306;50.210;10.628;2024-02-04T06:43:48;2.75;;;1.50;;
8536;SDS011;4306;50.210;10.628;2024-02-04T06:46:23;2.10;;;1.50;;
8536;SDS011;4306;50.210;10.628;2024-02-04T06:48:51;2.65;;;1.00;;
8536;SDS011;4306;50.210;10.628;2024-02-04T06:51:19;2.10;;;1.30;;
8536;SDS011;4306;50.210;10.628;2024-02-04T06:53:46;2.63;;;1.77;;
8536;SDS011;4306;50.210;10.628;2024-02-04T06:56:13;1.67;;;1.15;;
8536;SDS011;4306;50.210;10.628;2024-02-04T06:58:41;1.58;;;1.20;;
8536;SDS011;4306;50.210;10.628;2024-02-04T07:01:10;1.63;;;1.17;;
8536;SDS011;4306;50.210;10.628;2024-02-04T07:03:37;1.40;;;0.98;;
8536;SDS011;4306;50.210;10.628;2024-02-04T07:06:05;1.80;;;1.02;;
8536;SDS011;4306;50.210;10.628;2024-02-04T07:08:32;2.20;;;1.63;;
8536;SDS011;4306;50.210;10.628;2024-02-04T07:10:59;2.30;;;1.60;;
8536;SDS011;4306;50.210;10.628;2024-02-04T07:13:26;1.95;;;1.25;;
8536;SDS011;4306;50.210;10.628;2024-02-04T07:15:53;1.92;;;1.33;;
8536;SDS011;4306;50.210;10.628;2024-02-04T07:18:22;2.88;;;2.00;;
8536;SDS011;4306;50.210;10.628;2024-02-04T07:20:49;2.22;;;1.60;;
8536;SDS011;4306;50.210;10.628;2024-02-04T07:23:16;3.65;;;2.80;;
8536;SDS011;4306;50.210;10.628;2024-02-04T07:25:43;2.25;;;1.67;;
8536;SDS011;4306;50.210;10.628;2024-02-04T07:28:10;2.30;;;1.80;;
8536;SDS011;4306;50.210;10.628;2024-02-04T07:30:37;2.50;;;1.75;;
8536;SDS011;4306;50.210;10.628;2024-02-04T07:33:04;2.40;;;1.70;;
8536;SDS011;4306;50.210;10.628;2024-02-04T07:35:33;2.40;;;1.85;;
8536;SDS011;4306;50.210;10.628;2024-02-04T07:38:00;3.80;;;2.55;;
8536;SDS011;4306;50.210;10.628;2024-02-04T07:40:27;2.63;;;1.75;;
8536;SDS011;4306;50.210;10.628;2024-02-04T07:42:55;2.35;;;1.80;;
8536;SDS011;4306;50.210;10.628;2024-02-04T07:45:22;2.70;;;1.63;;
8536;SDS011;4306;50.210;10.628;2024-02-04T07:47:49;2.03;;;1.42;;
8536;SDS011;4306;50.210;10.628;2024-02-04T07:50:16;3.05;;;1.70;;
8536;SDS011;4306;50.210;10.628;2024-02-04T07:52:45;3.95;;;1.63;;
8536;SDS011;4306;50.210;10.628;2024-02-04T07:55:12;2.95;;;1.90;;
8536;SDS011;4306;50.210;10.628;2024-02-04T07:57:39;2.00;;;1.30;;
8536;SDS011;4306;50.210;10.628;2024-02-04T08:00:07;6.93;;;4.03;;
8536;SDS011;4306;50.210;10.628;2024-02-04T08:02:35;2.58;;;1.67;;
8536;SDS011;4306;50.210;10.628;2024-02-04T08:05:03;2.55;;;2.00;;
8536;SDS011;4306;50.210;10.628;2024-02-04T08:07:30;2.97;;;2.30;;
8536;SDS011;4306;50.210;10.628;2024-02-04T08:09:59;2.33;;;1.60;;
8536;SDS011;4306;50.210;10.628;2024-02-04T08:12:25;4.00;;;1.73;;
8536;SDS011;4306;50.210;10.628;2024-02-04T08:14:52;2.38;;;1.67;;
8536;SDS011;4306;50.210;10.628;2024-02-04T08:17:19;2.17;;;1.52;;
8536;SDS011;4306;50.210;10.628;2024-02-04T08:19:46;3.35;;;1.90;;
8536;SDS011;4306;50.210;10.628;2024-02-04T08:22:13;2.05;;;1.52;;
8536;SDS011;4306;50.210;10.628;2024-02-04T08:24:42;3.55;;;1.80;;
8536;SDS011;4306;50.210;10.628;2024-02-04T08:27:11;2.35;;;1.35;;
8536;SDS011;4306;50.210;10.628;2024-02-04T08:29:41;2.42;;;1.10;;
8536;SDS011;4306;50.210;10.628;2024-02-04T08:32:08;1.50;;;1.00;;
8536;SDS011;4306;50.210;10.628;2024-02-04T08:34:35;1.30;;;0.90;;
8536;SDS011;4306;50.210;10.628;2024-02-04T08:37:02;1.40;;;0.90;;
8536;SDS011;4306;50.210;10.628;2024-02-04T08:39:29;1.98;;;1.10;;
8536;SDS011;4306;50.210;10.628;2024-02-04T08:41:56;0.85;;;0.80;;
8536;SDS011;4306;50.210;10.628;2024-02-04T08:44:24;2.15;;;0.90;;
8536;SDS011;4306;50.210;10.628;2024-02-04T08:46:51;1.77;;;0.80;;
8536;SDS011;4306;50.210;10.628;2024-02-04T08:49:18;1.55;;;0.90;;
8536;SDS011;4306;50.210;10.628;2024-02-04T08:51:45;0.95;;;0.80;;
8536;SDS011;4306;50.210;10.628;2024-02-04T08:54:12;1.77;;;0.95;;
8536;SDS011;4306;50.210;10.628;2024-02-04T08:56:39;1.45;;;0.93;;
8536;SDS011;4306;50.210;10.628;2024-02-04T08:59:06;1.20;;;0.82;;
8536;SDS011;4306;50.210;10.628;2024-02-04T09:01:35;5.35;;;3.42;;
8536;SDS011;4306;50.210;10.628;2024-02-04T09:04:02;5.95;;;3.83;;
8536;SDS011;4306;50.210;10.628;2024-02-04T09:06:29;4.72;;;2.63;;
8536;SDS011;4306;50.210;10.628;2024-02-04T09:08:57;1.70;;;1.10;;
8536;SDS011;4306;50.210;10.628;2024-02-04T09:11:24;1.80;;;1.10;;
8536;SDS011;4306;50.210;10.628;2024-02-04T09:13:50;1.58;;;1.00;;
8536;SDS011;4306;50.210;10.628;2024-02-04T09:16:17;0.90;;;0.77;;
8536;SDS011;4306;50.210;10.628;2024-02-04T09:18:46;1.10;;;0.80;;
8536;SDS011;4306;50.210;10.628;2024-02-04T09:21:13;2.25;;;0.70;;
8536;SDS011;4306;50.210;10.628;2024-02-04T09:23:40;1.23;;;0.90;;
8536;SDS011;4306;50.210;10.628;2024-02-04T09:26:07;1.17;;;0.70;;
8536;SDS011;4306;50.210;10.628;2024-02-04T09:28:34;1.33;;;1.00;;
8536;SDS011;4306;50.210;10.628;2024-02-04T09:31:02;1.77;;;1.00;;
8536;SDS011;4306;50.210;10.628;2024-02-04T09:33:30;1.52;;;1.10;;
8536;SDS011;4306;50.210;10.628;2024-02-04T09:35:58;1.75;;;1.20;;
8536;SDS011;4306;50.210;10.628;2024-02-04T09:38:25;1.20;;;0.80;;
8536;SDS011;4306;50.210;10.628;2024-02-04T09:40:52;1.17;;;0.80;;
8536;SDS011;4306;50.210;10.628;2024-02-04T09:43:19;1.25;;;0.80;;
8536;SDS011;4306;50.210;10.628;2024-02-04T09:45:46;3.90;;;1.13;;
8536;SDS011;4306;50.210;10.628;2024-02-04T09:48:16;1.02;;;0.80;;
8536;SDS011;4306;50.210;10.628;2024-02-04T09:50:48;0.90;;;0.80;;
8536;SDS011;4306;50.210;10.628;2024-02-04T09:53:19;1.00;;;0.77;;
8536;SDS011;4306;50.210;10.628;2024-02-04T09:55:52;3.13;;;0.60;;
8536;SDS011;4306;50.210;10.628;2024-02-04T09:58:21;1.05;;;0.77;;
8536;SDS011;4306;50.210;10.628;2024-02-04T10:00:48;1.02;;;0.80;;
8536;SDS011;4306;50.210;10.628;2024-02-04T10:03:17;0.68;;;0.60;;
8536;SDS011;4306;50.210;10.628;2024-02-04T10:05:44;2.55;;;1.10;;
8536;SDS011;4306;50.210;10.628;2024-02-04T10:08:11;0.75;;;0.60;;
8536;SDS011;4306;50.210;10.628;2024-02-04T10:10:40;0.68;;;0.68;;
8536;SDS011;4306;50.210;10.628;2024-02-04T10:13:07;0.73;;;0.68;;
8536;SDS011;4306;50.210;10.628;2024-02-04T10:15:35;0.82;;;0.70;;
8536;SDS011;4306;50.210;10.628;2024-02-04T10:18:02;0.82;;;0.80;;
8536;SDS011;4306;50.210;10.628;2024-02-04T10:20:31;1.00;;;0.88;;
8536;SDS011;4306;50.210;10.628;2024-02-04T10:22:58;2.03;;;0.98;;
8536;SDS011;4306;50.210;10.628;2024-02-04T10:25:25;1.65;;;0.68;;
8536;SDS011;4306;50.210;10.628;2024-02-04T10:27:54;1.65;;;0.70;;
8536;SDS011;4306;50.210;10.628;2024-02-04T10:30:22;0.70;;;0.70;;
8536;SDS011;4306;50.210;10.628;2024-02-04T10:32:50;1.13;;;0.80;;
8536;SDS011;4306;50.210;10.628;2024-02-04T10:35:17;1.25;;;0.90;;
8536;SDS011;4306;50.210;10.628;2024-02-04T10:37:48;1.83;;;1.00;;
8536;SDS011;4306;50.210;10.628;2024-02-04T10:40:15;1.25;;;0.95;;
8536;SDS011;4306;50.210;10.628;2024-02-04T10:42:42;1.92;;;1.13;;
8536;SDS011;4306;50.210;10.628;2024-02-04T10:45:11;1.73;;;1.10;;
8536;SDS011;4306;50.210;10.628;2024-02-04T10:47:43;3.90;;;2.40;;
8536;SDS011;4306;50.210;10.628;2024-02-04T10:50:18;4.78;;;2.03;;
8536;SDS011;4306;50.210;10.628;2024-02-04T10:52:47;3.70;;;1.52;;
8536;SDS011;4306;50.210;10.628;2024-02-04T10:55:15;3.40;;;1.45;;
8536;SDS011;4306;50.210;10.628;2024-02-04T10:57:49;1.30;;;1.00;;
8536;SDS011;4306;50.210;10.628;2024-02-04T11:00:18;2.78;;;1.20;;
8536;SDS011;4306;50.210;10.628;2024-02-04T11:02:46;4.85;;;2.40;;
8536;SDS011;4306;50.210;10.628;2024-02-04T11:05:14;1.90;;;1.38;;
8536;SDS011;4306;50.210;10.628;2024-02-04T11:07:43;1.35;;;1.00;;
8536;SDS011;4306;50.210;10.628;2024-02-04T11:10:11;3.28;;;1.55;;
8536;SDS011;4306;50.210;10.628;2024-02-04T11:12:39;2.65;;;1.58;;
8536;SDS011;4306;50.210;10.628;2024-02-04T11:15:08;1.13;;;0.90;;
8536;SDS011;4306;50.210;10.628;2024-02-04T11:17:49;2.72;;;1.50;;
8536;SDS011;4306;50.210;10.628;2024-02-04T11:20:45;1.33;;;1.00;;
8536;SDS011;4306;50.210;10.628;2024-02-04T11:23:35;1.35;;;0.88;;
8536;SDS011;4306;50.210;10.628;2024-02-04T11:26:09;1.17;;;0.80;;
8536;SDS011;4306;50.210;10.628;2024-02-04T11:28:37;1.05;;;0.80;;
8536;SDS011;4306;50.210;10.628;2024-02-04T11:31:04;0.95;;;0.75;;
8536;SDS011;4306;50.210;10.628;2024-02-04T11:33:41;0.85;;;0.70;;
8536;SDS011;4306;50.210;10.628;2024-02-04T11:36:11;1.42;;;0.90;;
8536;SDS011;4306;50.210;10.628;2024-02-04T11:38:40;1.00;;;0.82;;
8536;SDS011;4306;50.210;10.628;2024-02-04T11:41:07;0.73;;;0.63;;
8536;SDS011;4306;50.210;10.628;2024-02-04T11:43:34;1.40;;;1.00;;
8536;SDS011;4306;50.210;10.628;2024-02-04T11:46:04;0.80;;;0.60;;
8536;SDS011;4306;50.210;10.628;2024-02-04T11:48:32;1.50;;;0.90;;
8536;SDS011;4306;50.210;10.628;2024-02-04T11:51:03;1.30;;;0.85;;
8536;SDS011;4306;50.210;10.628;2024-02-04T11:53:33;2.22;;;0.70;;
8536;SDS011;4306;50.210;10.628;2024-02-04T11:56:00;2.25;;;0.90;;
8536;SDS011;4306;50.210;10.628;2024-02-04T11:58:28;1.02;;;0.80;;
8536;SDS011;4306;50.210;10.628;2024-02-04T12:00:56;2.13;;;1.20;;
8536;SDS011;4306;50.210;10.628;2024-02-04T12:03:30;1.25;;;0.85;;
8536;SDS011;4306;50.210;10.628;2024-02-04T12:05:58;2.20;;;1.40;;
8536;SDS011;4306;50.210;10.628;2024-02-04T12:08:28;1.45;;;1.13;;
8536;SDS011;4306;50.210;10.628;2024-02-04T12:10:57;1.02;;;0.90;;
8536;SDS011;4306;50.210;10.628;2024-02-04T12:13:25;1.63;;;1.10;;
8536;SDS011;4306;50.210;10.628;2024-02-04T12:15:54;1.42;;;0.95;;
8536;SDS011;4306;50.210;10.628;2024-02-04T12:18:22;1.48;;;0.95;;
8536;SDS011;4306;50.210;10.628;2024-02-04T12:20:49;1.17;;;0.90;;
8536;SDS011;4306;50.210;10.628;2024-02-04T12:23:17;1.80;;;1.30;;
8536;SDS011;4306;50.210;10.628;2024-02-04T12:25:47;2.42;;;1.50;;
8536;SDS011;4306;50.210;10.628;2024-02-04T12:28:14;1.63;;;1.00;;
8536;SDS011;4306;50.210;10.628;2024-02-04T12:30:51;2.75;;;1.60;;
8536;SDS011;4306;50.210;10.628;2024-02-04T12:33:19;2.03;;;1.25;;
8536;SDS011;4306;50.210;10.628;2024-02-04T12:35:48;2.08;;;1.20;;
8536;SDS011;4306;50.210;10.628;2024-02-04T12:38:17;1.90;;;1.30;;
8536;SDS011;4306;50.210;10.628;2024-02-04T12:40:44;2.40;;;1.30;;
8536;SDS011;4306;50.210;10.628;2024-02-04T12:43:12;1.70;;;1.00;;
8536;SDS011;4306;50.210;10.628;2024-02-04T12:45:39;2.08;;;1.33;;
8536;SDS011;4306;50.210;10.628;2024-02-04T12:48:07;1.63;;;0.90;;
8536;SDS011;4306;50.210;10.628;2024-02-04T12:50:36;1.42;;;0.90;;
8536;SDS011;4306;50.210;10.628;2024-02-04T12:53:04;2.00;;;1.00;;
8536;SDS011;4306;50.210;10.628;2024-02-04T12:55:32;0.98;;;0.80;;
8536;SDS011;4306;50.210;10.628;2024-02-04T12:58:01;1.33;;;0.90;;
8536;SDS011;4306;50.210;10.628;2024-02-04T13:00:31;1.02;;;0.88;;
8536;SDS011;4306;50.210;10.628;2024-02-04T13:02:59;2.08;;;1.02;;
8536;SDS011;4306;50.210;10.628;2024-02-04T13:05:26;1.33;;;0.80;;
8536;SDS011;4306;50.210;10.628;2024-02-04T13:07:56;1.20;;;0.80;;
8536;SDS011;4306;50.210;10.628;2024-02-04T13:10:27;2.45;;;0.98;;
8536;SDS011;4306;50.210;10.628;2024-02-04T13:12:59;1.17;;;0.93;;
8536;SDS011;4306;50.210;10.628;2024-02-04T13:15:35;0.60;;;0.60;;
8536;SDS011;4306;50.210;10.628;2024-02-04T13:18:05;1.52;;;0.80;;
8536;SDS011;4306;50.210;10.628;2024-02-04T13:20:32;2.25;;;1.55;;
8536;SDS011;4306;50.210;10.628;2024-02-04T13:22:59;0.60;;;0.60;;
8536;SDS011;4306;50.210;10.628;2024-02-04T13:25:29;0.82;;;0.70;;
8536;SDS011;4306;50.210;10.628;2024-02-04T13:27:56;0.80;;;0.70;;
8536;SDS011;4306;50.210;10.628;2024-02-04T13:30:24;0.88;;;0.60;;
8536;SDS011;4306;50.210;10.628;2024-02-04T13:32:52;0.80;;;0.77;;
8536;SDS011;4306;50.210;10.628;2024-02-04T13:35:19;0.63;;;0.60;;
8536;SDS011;4306;50.210;10.628;2024-02-04T13:37:47;1.67;;;0.70;;
8536;SDS011;4306;50.210;10.628;2024-02-04T13:40:16;0.82;;;0.68;;
8536;SDS011;4306;50.210;10.628;2024-02-04T13:42:44;1.15;;;0.65;;
8536;SDS011;4306;50.210;10.628;2024-02-04T13:45:11;0.50;;;0.50;;
8536;SDS011;4306;50.210;10.628;2024-02-04T13:47:39;1.30;;;0.90;;
8536;SDS011;4306;50.210;10.628;2024-02-04T13:50:08;0.98;;;0.80;;
8536;SDS011;4306;50.210;10.628;2024-02-04T13:52:36;1.17;;;1.00;;
8536;SDS011;4306;50.210;10.628;2024-02-04T13:55:04;3.80;;;1.65;;
8536;SDS011;4306;50.210;10.628;2024-02-04T13:57:32;2.38;;;0.93;;
8536;SDS011;4306;50.210;10.628;2024-02-04T14:00:00;4.43;;;1.58;;
8536;SDS011;4306;50.210;10.628;2024-02-04T14:02:28;2.60;;;2.15;;
8536;SDS011;4306;50.210;10.628;2024-02-04T14:04:55;0.70;;;0.52;;
8536;SDS011;4306;50.210;10.628;2024-02-04T14:07:24;0.60;;;0.60;;
8536;SDS011;4306;50.210;10.628;2024-02-04T14:09:51;0.65;;;0.50;;
8536;SDS011;4306;50.210;10.628;2024-02-04T14:12:19;2.80;;;1.33;;
8536;SDS011;4306;50.210;10.628;2024-02-04T14:14:46;1.95;;;1.25;;
8536;SDS011;4306;50.210;10.628;2024-02-04T14:17:13;0.80;;;0.60;;
8536;SDS011;4306;50.210;10.628;2024-02-04T14:19:40;1.23;;;0.75;;
8536;SDS011;4306;50.210;10.628;2024-02-04T14:22:07;0.70;;;0.57;;
8536;SDS011;4306;50.210;10.628;2024-02-04T14:24:35;0.40;;;0.40;;
8536;SDS011;4306;50.210;10.628;2024-02-04T14:27:03;0.77;;;0.55;;
8536;SDS011;4306;50.210;10.628;2024-02-04T14:29:31;1.05;;;0.52;;
8536;SDS011;4306;50.210;10.628;2024-02-04T14:31:58;0.50;;;0.50;;
8536;SDS011;4306;50.210;10.628;2024-02-04T14:34:25;0.50;;;0.50;;
8536;SDS011;4306;50.210;10.628;2024-02-04T14:36:53;0.52;;;0.50;;
8536;SDS011;4306;50.210;10.628;2024-02-04T14:39:20;0.70;;;0.60;;
8536;SDS011;4306;50.210;10.628;2024-02-04T14:41:48;0.88;;;0.60;;
8536;SDS011;4306;50.210;10.628;2024-02-04T14:44:15;1.17;;;0.70;;
8536;SDS011;4306;50.210;10.628;2024-02-04T14:46:42;0.57;;;0.57;;
8536;SDS011;4306;50.210;10.628;2024-02-04T14:49:10;1.67;;;0.90;;
8536;SDS011;4306;50.210;10.628;2024-02-04T14:51:38;1.40;;;1.13;;
8536;SDS011;4306;50.210;10.628;2024-02-04T14:54:05;1.70;;;0.95;;
8536;SDS011;4306;50.210;10.628;2024-02-04T14:56:36;1.10;;;0.73;;
8536;SDS011;4306;50.210;10.628;2024-02-04T14:59:07;0.90;;;0.80;;
8536;SDS011;4306;50.210;10.628;2024-02-04T15:01:36;1.67;;;1.10;;
8536;SDS011;4306;50.210;10.628;2024-02-04T15:04:03;2.97;;;2.05;;
8536;SDS011;4306;50.210;10.628;2024-02-04T15:06:31;7.93;;;4.15;;